sensor_id;sensor_type;location;lat;lon;timestamp;pressure;altitude;pressure_sealevel;temperature;humidity
60345;BME280;46188;52.324;8.032;2024-03-07T00:01:28;101522.22;;;4.11;100.00
60345;BME280;46188;52.324;8.032;2024-03-07T00:03:53;101522.03;;;4.08;100.00
60345;BME280;46188;52.324;8.032;2024-03-07T00:06:18;101542.75;;;4.05;100.00
60345;BME280;46188;52.324;8.032;2024-03-07T00:08:46;101529.53;;;4.02;100.00
60345;BME280;46188;52.324;8.032;2024-03-07T00:11:11;101534.56;;;3.99;100.00
60345;BME280;46188;52.324;8.032;2024-03-07T00:13:36;101537.94;;;3.96;100.00
60345;BME280;46188;52.324;8.032;2024-03-07T00:16:02;101533.34;;;3.92;100.00
60345;BME280;46188;52.324;8.032;2024-03-07T00:18:28;101538.41;;;3.89;100.00
60345;BME280;46188;52.324;8.032;2024-03-07T00:20:53;101545.16;;;3.85;100.00
60345;BME280;46188;52.324;8.032;2024-03-07T00:23:20;101537.00;;;3.79;100.00
60345;BME280;46188;52.324;8.032;2024-03-07T00:25:45;101539.44;;;3.76;100.00
60345;BME280;46188;52.324;8.032;2024-03-07T00:28:11;101540.97;;;3.73;100.00
60345;BME280;46188;52.324;8.032;2024-03-07T00:30:36;101546.03;;;3.69;100.00
60345;BME280;46188;52.324;8.032;2024-03-07T00:33:02;101540.63;;;3.66;100.00
60345;BME280;46188;52.324;8.032;2024-03-07T00:35:27;101548.28;;;3.63;100.00
60345;BME280;46188;52.324;8.032;2024-03-07T00:37:52;101541.19;;;3.61;100.00
60345;BME280;46188;52.324;8.032;2024-03-07T00:40:18;101542.78;;;3.59;100.00
60345;BME280;46188;52.324;8.032;2024-03-07T00:42:44;101541.56;;;3.52;100.00
60345;BME280;46188;52.324;8.032;2024-03-07T00:45:09;101526.66;;;3.49;100.00
60345;BME280;46188;52.324;8.032;2024-03-07T00:47:35;101537.78;;;3.47;100.00
60345;BME280;46188;52.324;8.032;2024-03-07T00:50:00;101529.78;;;3.44;100.00
60345;BME280;46188;52.324;8.032;2024-03-07T00:52:25;101527.94;;;3.41;100.00
60345;BME280;46188;52.324;8.032;2024-03-07T00:54:50;101525.16;;;3.38;100.00
60345;BME280;46188;52.324;8.032;2024-03-07T00:57:16;101520.63;;;3.36;100.00
60345;BME280;46188;52.324;8.032;2024-03-07T00:59:42;101528.47;;;3.36;100.00
60345;BME280;46188;52.324;8.032;2024-03-07T01:02:07;101528.28;;;3.32;100.00
60345;BME280;46188;52.324;8.032;2024-03-07T01:04:32;101524.69;;;3.30;100.00
60345;BME280;46188;52.324;8.032;2024-03-07T01:06:58;101528.94;;;3.28;100.00
60345;BME280;46188;52.324;8.032;2024-03-07T01:09:24;101517.53;;;3.26;100.00
60345;BME280;46188;52.324;8.032;2024-03-07T01:11:49;101528.75;;;3.25;100.00
60345;BME280;46188;52.324;8.032;2024-03-07T01:14:15;101527.75;;;3.23;100.00
60345;BME280;46188;52.324;8.032;2024-03-07T01:16:40;101522.38;;;3.20;100.00
60345;BME280;46188;52.324;8.032;2024-03-07T01:19:06;101527.50;;;3.19;100.00
60345;BME280;46188;52.324;8.032;2024-03-07T01:21:33;101528.28;;;3.18;100.00
60345;BME280;46188;52.324;8.032;2024-03-07T01:23:59;101516.81;;;3.14;100.00
60345;BME280;46188;52.324;8.032;2024-03-07T01:26:25;101515.81;;;3.12;100.00
60345;BME280;46188;52.324;8.032;2024-03-07T01:28:51;101510.44;;;3.09;100.00
60345;BME280;46188;52.324;8.032;2024-03-07T01:31:16;101512.06;;;3.07;100.00
60345;BME280;46188;52.324;8.032;2024-03-07T01:33:41;101511.06;;;3.05;100.00
60345;BME280;46188;52.324;8.032;2024-03-07T01:36:06;101507.47;;;3.03;100.00
60345;BME280;46188;52.324;8.032;2024-03-07T01:38:32;101508.19;;;3.00;100.00
60345;BME280;46188;52.324;8.032;2024-03-07T01:40:57;101514.13;;;2.98;100.00
60345;BME280;46188;52.324;8.032;2024-03-07T01:43:22;101505.31;;;2.95;100.00
60345;BME280;46188;52.324;8.032;2024-03-07T01:45:49;101512.94;;;2.92;100.00
60345;BME280;46188;52.324;8.032;2024-03-07T01:48:25;101511.16;;;2.91;100.00
60345;BME280;46188;52.324;8.032;2024-03-07T01:50:51;101508.47;;;2.90;100.00
60345;BME280;46188;52.324;8.032;2024-03-07T01:53:17;101510.91;;;2.87;100.00
60345;BME280;46188;52.324;8.032;2024-03-07T01:55:42;101511.59;;;2.84;100.00
60345;BME280;46188;52.324;8.032;2024-03-07T01:58:12;101508.00;;;2.82;100.00
60345;BME280;46188;52.324;8.032;2024-03-07T02:00:39;101507.81;;;2.79;100.00
60345;BME280;46188;52.324;8.032;2024-03-07T02:03:04;101507.72;;;2.77;100.00
60345;BME280;46188;52.324;8.032;2024-03-07T02:05:32;101498.16;;;2.76;100.00
60345;BME280;46188;52.324;8.032;2024-03-07T02:07:58;101505.03;;;2.76;100.00
60345;BME280;46188;52.324;8.032;2024-03-07T02:10:23;101504.06;;;2.74;100.00
60345;BME280;46188;52.324;8.032;2024-03-07T02:12:48;101503.97;;;2.72;100.00
60345;BME280;46188;52.324;8.032;2024-03-07T02:15:14;101503.97;;;2.72;100.00
60345;BME280;46188;52.324;8.032;2024-03-07T02:17:40;101498.66;;;2.71;100.00
60345;BME280;46188;52.324;8.032;2024-03-07T02:20:05;101498.47;;;2.68;100.00
60345;BME280;46188;52.324;8.032;2024-03-07T02:22:33;101493.28;;;2.68;100.00
60345;BME280;46188;52.324;8.032;2024-03-07T02:24:58;101491.31;;;2.64;100.00
60345;BME280;46188;52.324;8.032;2024-03-07T02:27:23;101489.50;;;2.63;100.00
60345;BME280;46188;52.324;8.032;2024-03-07T02:29:49;101494.63;;;2.61;100.00
60345;BME280;46188;52.324;8.032;2024-03-07T02:32:16;101486.72;;;2.59;100.00
60345;BME280;46188;52.324;8.032;2024-03-07T02:34:41;101497.03;;;2.58;100.00
60345;BME280;46188;52.324;8.032;2024-03-07T02:37:08;101489.06;;;2.55;100.00
60345;BME280;46188;52.324;8.032;2024-03-07T02:39:35;101485.44;;;2.53;100.00
60345;BME280;46188;52.324;8.032;2024-03-07T02:42:01;101484.47;;;2.51;100.00
60345;BME280;46188;52.324;8.032;2024-03-07T02:44:26;101480.88;;;2.49;100.00
60345;BME280;46188;52.324;8.032;2024-03-07T02:46:51;101476.38;;;2.46;100.00
60345;BME280;46188;52.324;8.032;2024-03-07T02:49:16;101475.50;;;2.46;100.00
60345;BME280;46188;52.324;8.032;2024-03-07T02:51:42;101482.31;;;2.44;100.00
60345;BME280;46188;52.324;8.032;2024-03-07T02:54:08;101479.63;;;2.42;100.00
60345;BME280;46188;52.324;8.032;2024-03-07T02:56:33;101480.31;;;2.39;100.00
60345;BME280;46188;52.324;8.032;2024-03-07T02:58:58;101477.63;;;2.38;100.00
60345;BME280;46188;52.324;8.032;2024-03-07T03:01:23;101471.53;;;2.37;100.00
60345;BME280;46188;52.324;8.032;2024-03-07T03:03:49;101474.81;;;2.35;100.00
60345;BME280;46188;52.324;8.032;2024-03-07T03:06:14;101473.84;;;2.33;100.00
60345;BME280;46188;52.324;8.032;2024-03-07T03:08:39;101476.34;;;2.31;100.00
60345;BME280;46188;52.324;8.032;2024-03-07T03:11:05;101472.66;;;2.28;100.00
60345;BME280;46188;52.324;8.032;2024-03-07T03:13:30;101472.47;;;2.25;100.00
60345;BME280;46188;52.324;8.032;2024-03-07T03:15:56;101473.22;;;2.22;100.00
60345;BME280;46188;52.324;8.032;2024-03-07T03:18:25;101475.63;;;2.19;100.00
60345;BME280;46188;52.324;8.032;2024-03-07T03:20:51;101466.84;;;2.17;100.00
60345;BME280;46188;52.324;8.032;2024-03-07T03:23:18;101473.63;;;2.15;100.00
60345;BME280;46188;52.324;8.032;2024-03-07T03:25:43;101456.94;;;2.11;100.00
60345;BME280;46188;52.324;8.032;2024-03-07T03:28:09;101459.34;;;2.08;100.00
60345;BME280;46188;52.324;8.032;2024-03-07T03:30:41;101463.56;;;2.06;100.00
60345;BME280;46188;52.324;8.032;2024-03-07T03:33:07;101461.75;;;2.05;100.00
60345;BME280;46188;52.324;8.032;2024-03-07T03:35:33;101463.38;;;2.03;100.00
60345;BME280;46188;52.324;8.032;2024-03-07T03:37:59;101470.19;;;2.01;100.00
60345;BME280;46188;52.324;8.032;2024-03-07T03:40:24;101471.81;;;1.99;100.00
60345;BME280;46188;52.324;8.032;2024-03-07T03:42:49;101468.19;;;1.97;100.00
60345;BME280;46188;52.324;8.032;2024-03-07T03:45:15;101472.41;;;1.95;100.00
60345;BME280;46188;52.324;8.032;2024-03-07T03:47:41;101471.41;;;1.93;100.00
60345;BME280;46188;52.324;8.032;2024-03-07T03:50:09;101469.50;;;1.90;100.00
60345;BME280;46188;52.324;8.032;2024-03-07T03:52:34;101467.63;;;1.88;100.00
60345;BME280;46188;52.324;8.032;2024-03-07T03:55:03;101468.31;;;1.85;100.00
60345;BME280;46188;52.324;8.032;2024-03-07T03:57:32;101464.75;;;1.83;100.00
60345;BME280;46188;52.324;8.032;2024-03-07T03:59:58;101461.16;;;1.81;100.00
60345;BME280;46188;52.324;8.032;2024-03-07T04:02:23;101468.84;;;1.79;100.00
60345;BME280;46188;52.324;8.032;2024-03-07T04:04:49;101467.06;;;1.78;100.00
60345;BME280;46188;52.324;8.032;2024-03-07T04:07:15;101474.66;;;1.75;100.00
60345;BME280;46188;52.324;8.032;2024-03-07T04:09:44;101462.47;;;1.74;100.00
60345;BME280;46188;52.324;8.032;2024-03-07T04:12:11;101466.69;;;1.72;100.00
60345;BME280;46188;52.324;8.032;2024-03-07T04:14:39;101459.69;;;1.71;100.00
60345;BME280;46188;52.324;8.032;2024-03-07T04:17:06;101468.28;;;1.70;100.00
60345;BME280;46188;52.324;8.032;2024-03-07T04:19:35;101469.88;;;1.68;100.00
60345;BME280;46188;52.324;8.032;2024-03-07T04:22:01;101461.09;;;1.66;100.00
60345;BME280;46188;52.324;8.032;2024-03-07T04:24:28;101461.88;;;1.65;100.00
60345;BME280;46188;52.324;8.032;2024-03-07T04:26:54;101469.59;;;1.63;100.00
60345;BME280;46188;52.324;8.032;2024-03-07T04:29:19;101459.09;;;1.62;100.00
60345;BME280;46188;52.324;8.032;2024-03-07T04:31:44;101462.50;;;1.61;100.00
60345;BME280;46188;52.324;8.032;2024-03-07T04:34:09;101458.09;;;1.60;100.00
60345;BME280;46188;52.324;8.032;2024-03-07T04:36:35;101461.50;;;1.59;100.00
60345;BME280;46188;52.324;8.032;2024-03-07T04:39:00;101459.63;;;1.56;100.00
60345;BME280;46188;52.324;8.032;2024-03-07T04:41:29;101462.13;;;1.55;100.00
60345;BME280;46188;52.324;8.032;2024-03-07T04:43:54;101453.34;;;1.53;100.00
60345;BME280;46188;52.324;8.032;2024-03-07T04:46:20;101451.53;;;1.52;100.00
60345;BME280;46188;52.324;8.032;2024-03-07T04:48:45;101451.31;;;1.48;100.00
60345;BME280;46188;52.324;8.032;2024-03-07T04:51:10;101451.22;;;1.47;100.00
60345;BME280;46188;52.324;8.032;2024-03-07T04:53:35;101457.16;;;1.44;100.00
60345;BME280;46188;52.324;8.032;2024-03-07T04:56:04;101454.34;;;1.41;100.00
60345;BME280;46188;52.324;8.032;2024-03-07T04:58:29;101461.16;;;1.39;100.00
60345;BME280;46188;52.324;8.032;2024-03-07T05:00:54;101460.94;;;1.36;100.00
60345;BME280;46188;52.324;8.032;2024-03-07T05:03:19;101462.56;;;1.34;100.00
60345;BME280;46188;52.324;8.032;2024-03-07T05:05:45;101462.47;;;1.33;100.00
60345;BME280;46188;52.324;8.032;2024-03-07T05:08:13;101466.63;;;1.31;100.00
60345;BME280;46188;52.324;8.032;2024-03-07T05:10:38;101459.56;;;1.28;100.00
60345;BME280;46188;52.324;8.032;2024-03-07T05:13:03;101462.06;;;1.26;100.00
60345;BME280;46188;52.324;8.032;2024-03-07T05:15:30;101459.47;;;1.26;100.00
60345;BME280;46188;52.324;8.032;2024-03-07T05:17:55;101462.75;;;1.24;100.00
60345;BME280;46188;52.324;8.032;2024-03-07T05:20:21;101468.75;;;1.23;100.00
60345;BME280;46188;52.324;8.032;2024-03-07T05:22:47;101461.75;;;1.22;100.00
60345;BME280;46188;52.324;8.032;2024-03-07T05:25:16;101469.44;;;1.20;100.00
60345;BME280;46188;52.324;8.032;2024-03-07T05:27:41;101470.34;;;1.21;100.00
60345;BME280;46188;52.324;8.032;2024-03-07T05:30:07;101469.44;;;1.20;100.00
60345;BME280;46188;52.324;8.032;2024-03-07T05:32:34;101470.34;;;1.21;100.00
60345;BME280;46188;52.324;8.032;2024-03-07T05:35:00;101472.03;;;1.20;100.00
60345;BME280;46188;52.324;8.032;2024-03-07T05:37:25;101475.47;;;1.19;100.00
60345;BME280;46188;52.324;8.032;2024-03-07T05:39:52;101483.25;;;1.19;100.00
60345;BME280;46188;52.324;8.032;2024-03-07T05:42:17;101472.75;;;1.18;100.00
60345;BME280;46188;52.324;8.032;2024-03-07T05:44:42;101483.16;;;1.18;100.00
60345;BME280;46188;52.324;8.032;2024-03-07T05:47:08;101477.84;;;1.16;100.00
60345;BME280;46188;52.324;8.032;2024-03-07T05:49:34;101479.53;;;1.16;100.00
60345;BME280;46188;52.324;8.032;2024-03-07T05:51:59;101482.13;;;1.16;100.00
60345;BME280;46188;52.324;8.032;2024-03-07T05:54:25;101487.31;;;1.16;100.00
60345;BME280;46188;52.324;8.032;2024-03-07T05:56:50;101476.94;;;1.16;100.00
60345;BME280;46188;52.324;8.032;2024-03-07T05:59:16;101487.31;;;1.16;100.00
60345;BME280;46188;52.324;8.032;2024-03-07T06:01:42;101493.44;;;1.16;100.00
60345;BME280;46188;52.324;8.032;2024-03-07T06:04:09;101490.84;;;1.16;100.00
60345;BME280;46188;52.324;8.032;2024-03-07T06:06:36;101486.63;;;1.18;100.00
60345;BME280;46188;52.324;8.032;2024-03-07T06:09:07;101479.72;;;1.19;100.00
60345;BME280;46188;52.324;8.032;2024-03-07T06:11:39;101486.84;;;1.21;100.00
60345;BME280;46188;52.324;8.032;2024-03-07T06:14:07;101487.72;;;1.22;100.00
60345;BME280;46188;52.324;8.032;2024-03-07T06:16:35;101488.63;;;1.22;100.00
60345;BME280;46188;52.324;8.032;2024-03-07T06:19:02;101489.53;;;1.23;100.00
60345;BME280;46188;52.324;8.032;2024-03-07T06:21:29;101489.63;;;1.24;100.00
60345;BME280;46188;52.324;8.032;2024-03-07T06:23:58;101494.94;;;1.26;100.00
60345;BME280;46188;52.324;8.032;2024-03-07T06:26:28;101496.81;;;1.28;100.00
60345;BME280;46188;52.324;8.032;2024-03-07T06:29:15;101490.84;;;1.29;100.00
60345;BME280;46188;52.324;8.032;2024-03-07T06:31:42;101490.84;;;1.29;100.00
60345;BME280;46188;52.324;8.032;2024-03-07T06:34:07;101497.81;;;1.31;100.00
60345;BME280;46188;52.324;8.032;2024-03-07T06:36:35;101502.31;;;1.33;100.00
60345;BME280;46188;52.324;8.032;2024-03-07T06:39:01;101495.50;;;1.35;100.00
60345;BME280;46188;52.324;8.032;2024-03-07T06:41:28;101501.59;;;1.36;100.00
60345;BME280;46188;52.324;8.032;2024-03-07T06:43:54;101499.09;;;1.37;100.00
60345;BME280;46188;52.324;8.032;2024-03-07T06:46:20;101505.22;;;1.38;100.00
60345;BME280;46188;52.324;8.032;2024-03-07T06:48:46;101497.44;;;1.38;100.00
60345;BME280;46188;52.324;8.032;2024-03-07T06:51:11;101498.31;;;1.38;100.00
60345;BME280;46188;52.324;8.032;2024-03-07T06:53:37;101496.41;;;1.36;100.00
60345;BME280;46188;52.324;8.032;2024-03-07T06:56:02;101504.28;;;1.37;100.00
60345;BME280;46188;52.324;8.032;2024-03-07T06:58:28;101501.69;;;1.37;100.00
60345;BME280;46188;52.324;8.032;2024-03-07T07:00:53;101499.09;;;1.37;100.00
60345;BME280;46188;52.324;8.032;2024-03-07T07:03:23;101507.81;;;1.38;100.00
60345;BME280;46188;52.324;8.032;2024-03-07T07:05:49;101507.81;;;1.38;100.00
60345;BME280;46188;52.324;8.032;2024-03-07T07:08:14;101508.59;;;1.37;100.00
60345;BME280;46188;52.324;8.032;2024-03-07T07:10:40;101513.91;;;1.38;100.00
60345;BME280;46188;52.324;8.032;2024-03-07T07:13:06;101513.13;;;1.39;100.00
60345;BME280;46188;52.324;8.032;2024-03-07T07:15:32;101511.31;;;1.38;100.00
60345;BME280;46188;52.324;8.032;2024-03-07T07:17:58;101512.19;;;1.39;100.00
60345;BME280;46188;52.324;8.032;2024-03-07T07:20:24;101512.19;;;1.39;100.00
60345;BME280;46188;52.324;8.032;2024-03-07T07:22:50;101521.00;;;1.41;100.00
60345;BME280;46188;52.324;8.032;2024-03-07T07:25:15;101523.72;;;1.42;100.00
60345;BME280;46188;52.324;8.032;2024-03-07T07:27:48;101512.59;;;1.45;100.00
60345;BME280;46188;52.324;8.032;2024-03-07T07:30:16;101517.09;;;1.47;100.00
60345;BME280;46188;52.324;8.032;2024-03-07T07:32:42;101524.28;;;1.52;100.00
60345;BME280;46188;52.324;8.032;2024-03-07T07:35:08;101514.88;;;1.54;100.00
60345;BME280;46188;52.324;8.032;2024-03-07T07:37:44;101516.06;;;1.59;100.00
60345;BME280;46188;52.324;8.032;2024-03-07T07:40:12;101518.97;;;1.63;100.00
60345;BME280;46188;52.324;8.032;2024-03-07T07:42:40;101515.78;;;1.68;100.00
60345;BME280;46188;52.324;8.032;2024-03-07T07:45:08;101510.06;;;1.73;100.00
60345;BME280;46188;52.324;8.032;2024-03-07T07:47:39;101506.78;;;1.76;100.00
60345;BME280;46188;52.324;8.032;2024-03-07T07:50:08;101511.34;;;1.80;100.00
60345;BME280;46188;52.324;8.032;2024-03-07T07:52:40;101510.66;;;1.82;100.00
60345;BME280;46188;52.324;8.032;2024-03-07T07:55:05;101505.81;;;1.89;100.00
60345;BME280;46188;52.324;8.032;2024-03-07T07:57:32;101506.94;;;1.92;100.00
60345;BME280;46188;52.324;8.032;2024-03-07T07:59:57;101508.81;;;1.95;100.00
60345;BME280;46188;52.324;8.032;2024-03-07T08:02:22;101511.50;;;1.96;100.00
60345;BME280;46188;52.324;8.032;2024-03-07T08:04:47;101504.59;;;1.97;100.00
60345;BME280;46188;52.324;8.032;2024-03-07T08:07:14;101496.88;;;1.98;100.00
60345;BME280;46188;52.324;8.032;2024-03-07T08:09:39;101497.09;;;2.01;100.00
60345;BME280;46188;52.324;8.032;2024-03-07T08:12:05;101489.28;;;2.01;100.00
60345;BME280;46188;52.324;8.032;2024-03-07T08:14:31;101497.47;;;2.08;100.00
60345;BME280;46188;52.324;8.032;2024-03-07T08:16:56;101491.38;;;2.07;100.00
60345;BME280;46188;52.324;8.032;2024-03-07T08:19:21;101492.47;;;2.11;100.00
60345;BME280;46188;52.324;8.032;2024-03-07T08:21:48;101484.94;;;2.15;100.00
60345;BME280;46188;52.324;8.032;2024-03-07T08:24:13;101483.44;;;2.19;100.00
60345;BME280;46188;52.324;8.032;2024-03-07T08:26:39;101478.41;;;2.22;100.00
60345;BME280;46188;52.324;8.032;2024-03-07T08:29:09;101475.19;;;2.26;100.00
60345;BME280;46188;52.324;8.032;2024-03-07T08:31:34;101471.88;;;2.29;100.00
60345;BME280;46188;52.324;8.032;2024-03-07T08:34:00;101470.34;;;2.32;100.00
60345;BME280;46188;52.324;8.032;2024-03-07T08:36:25;101472.41;;;2.38;100.00
60345;BME280;46188;52.324;8.032;2024-03-07T08:38:50;101473.69;;;2.45;100.00
60345;BME280;46188;52.324;8.032;2024-03-07T08:41:17;101472.97;;;2.47;100.00
60345;BME280;46188;52.324;8.032;2024-03-07T08:43:43;101466.94;;;2.48;100.00
60345;BME280;46188;52.324;8.032;2024-03-07T08:46:09;101484.47;;;2.51;100.00
60345;BME280;46188;52.324;8.032;2024-03-07T08:48:35;101478.56;;;2.53;100.00
60345;BME280;46188;52.324;8.032;2024-03-07T08:51:00;101473.69;;;2.59;100.00
60345;BME280;46188;52.324;8.032;2024-03-07T08:53:25;101474.06;;;2.66;100.00
60345;BME280;46188;52.324;8.032;2024-03-07T08:55:51;101469.94;;;2.69;100.00
60345;BME280;46188;52.324;8.032;2024-03-07T08:58:16;101465.88;;;2.74;100.00
60345;BME280;46188;52.324;8.032;2024-03-07T09:00:42;101459.25;;;2.80;100.00
60345;BME280;46188;52.324;8.032;2024-03-07T09:03:10;101467.41;;;2.86;100.00
60345;BME280;46188;52.324;8.032;2024-03-07T09:05:35;101465.88;;;2.89;100.00
60345;BME280;46188;52.324;8.032;2024-03-07T09:08:01;101470.47;;;2.93;100.00
60345;BME280;46188;52.324;8.032;2024-03-07T09:10:27;101453.31;;;2.97;100.00
60345;BME280;46188;52.324;8.032;2024-03-07T09:12:54;101457.88;;;3.01;100.00
60345;BME280;46188;52.324;8.032;2024-03-07T09:15:22;101465.06;;;3.05;100.00
60345;BME280;46188;52.324;8.032;2024-03-07T09:17:48;101455.81;;;3.10;100.00
60345;BME280;46188;52.324;8.032;2024-03-07T09:20:14;101449.06;;;3.14;100.00
60345;BME280;46188;52.324;8.032;2024-03-07T09:22:42;101456.34;;;3.20;100.00
60345;BME280;46188;52.324;8.032;2024-03-07T09:25:08;101449.50;;;3.22;100.00
60345;BME280;46188;52.324;8.032;2024-03-07T09:27:33;101453.19;;;3.25;100.00
60345;BME280;46188;52.324;8.032;2024-03-07T09:29:59;101448.13;;;3.28;100.00
60345;BME280;46188;52.324;8.032;2024-03-07T09:32:24;101448.31;;;3.31;100.00
60345;BME280;46188;52.324;8.032;2024-03-07T09:34:49;101445.88;;;3.35;100.00
60345;BME280;46188;52.324;8.032;2024-03-07T09:37:15;101449.56;;;3.38;100.00
60345;BME280;46188;52.324;8.032;2024-03-07T09:39:40;101451.50;;;3.42;100.00
60345;BME280;46188;52.324;8.032;2024-03-07T09:42:07;101443.94;;;3.47;100.00
60345;BME280;46188;52.324;8.032;2024-03-07T09:44:38;101449.25;;;3.48;100.00
60345;BME280;46188;52.324;8.032;2024-03-07T09:47:04;101460.66;;;3.50;100.00
60345;BME280;46188;52.324;8.032;2024-03-07T09:49:30;101453.84;;;3.53;100.00
60345;BME280;46188;52.324;8.032;2024-03-07T09:51:56;101463.44;;;3.54;100.00
60345;BME280;46188;52.324;8.032;2024-03-07T09:54:24;101459.09;;;3.54;100.00
60345;BME280;46188;52.324;8.032;2024-03-07T09:56:53;101460.09;;;3.56;100.00
60345;BME280;46188;52.324;8.032;2024-03-07T09:59:19;101459.28;;;3.57;100.00
60345;BME280;46188;52.324;8.032;2024-03-07T10:01:47;101452.47;;;3.59;100.00
60345;BME280;46188;52.324;8.032;2024-03-07T10:04:13;101461.88;;;3.57;100.00
60345;BME280;46188;52.324;8.032;2024-03-07T10:06:40;101463.69;;;3.58;100.00
60345;BME280;46188;52.324;8.032;2024-03-07T10:09:06;101459.38;;;3.59;100.00
60345;BME280;46188;52.324;8.032;2024-03-07T10:11:32;101455.16;;;3.61;100.00
60345;BME280;46188;52.324;8.032;2024-03-07T10:13:58;101457.91;;;3.64;100.00
60345;BME280;46188;52.324;8.032;2024-03-07T10:16:24;101459.00;;;3.67;100.00
60345;BME280;46188;52.324;8.032;2024-03-07T10:18:50;101462.56;;;3.69;100.00
60345;BME280;46188;52.324;8.032;2024-03-07T10:21:19;101458.34;;;3.72;100.00
60345;BME280;46188;52.324;8.032;2024-03-07T10:23:44;101448.88;;;3.74;100.00
60345;BME280;46188;52.324;8.032;2024-03-07T10:26:10;101450.84;;;3.78;100.00
60345;BME280;46188;52.324;8.032;2024-03-07T10:28:35;101454.53;;;3.81;100.00
60345;BME280;46188;52.324;8.032;2024-03-07T10:31:00;101449.47;;;3.84;100.00
60345;BME280;46188;52.324;8.032;2024-03-07T10:33:29;101450.63;;;3.90;100.00
60345;BME280;46188;52.324;8.032;2024-03-07T10:35:58;101446.38;;;3.92;100.00
60345;BME280;46188;52.324;8.032;2024-03-07T10:38:23;101449.16;;;3.95;100.00
60345;BME280;46188;52.324;8.032;2024-03-07T10:40:53;101449.31;;;3.98;100.00
60345;BME280;46188;52.324;8.032;2024-03-07T10:43:20;101450.19;;;3.98;100.00
60345;BME280;46188;52.324;8.032;2024-03-07T10:45:47;101455.59;;;4.01;100.00
60345;BME280;46188;52.324;8.032;2024-03-07T10:48:16;101447.84;;;4.03;100.00
60345;BME280;46188;52.324;8.032;2024-03-07T10:51:09;101451.41;;;4.05;100.00
60345;BME280;46188;52.324;8.032;2024-03-07T10:57:02;101438.28;;;4.03;100.00
60345;BME280;46188;52.324;8.032;2024-03-07T10:59:30;101447.16;;;4.07;100.00
60345;BME280;46188;52.324;8.032;2024-03-07T11:04:47;101436.97;;;4.12;100.00
60345;BME280;46188;52.324;8.032;2024-03-07T11:07:23;101437.94;;;4.14;100.00
60345;BME280;46188;52.324;8.032;2024-03-07T11:09:52;101438.19;;;4.18;100.00
60345;BME280;46188;52.324;8.032;2024-03-07T11:12:22;101430.63;;;4.23;100.00
60345;BME280;46188;52.324;8.032;2024-03-07T11:14:50;101429.06;;;4.27;100.00
60345;BME280;46188;52.324;8.032;2024-03-07T11:17:20;101425.88;;;4.32;100.00
60345;BME280;46188;52.324;8.032;2024-03-07T11:19:47;101427.75;;;4.35;100.00
60345;BME280;46188;52.324;8.032;2024-03-07T11:22:29;101430.59;;;4.39;100.00
60345;BME280;46188;52.324;8.032;2024-03-07T11:25:05;101429.94;;;4.43;100.00
60345;BME280;46188;52.324;8.032;2024-03-07T11:27:39;101427.56;;;4.48;100.00
60345;BME280;46188;52.324;8.032;2024-03-07T11:30:06;101430.41;;;4.53;100.00
60345;BME280;46188;52.324;8.032;2024-03-07T11:32:37;101426.38;;;4.59;100.00
60345;BME280;46188;52.324;8.032;2024-03-07T11:35:11;101426.53;;;4.62;100.00
60345;BME280;46188;52.324;8.032;2024-03-07T11:37:44;101421.56;;;4.67;100.00
60345;BME280;46188;52.324;8.032;2024-03-07T11:40:12;101416.56;;;4.72;100.00
60345;BME280;46188;52.324;8.032;2024-03-07T11:42:45;101407.31;;;4.78;100.00
60345;BME280;46188;52.324;8.032;2024-03-07T11:45:12;101402.22;;;4.81;100.00
60345;BME280;46188;52.324;8.032;2024-03-07T11:47:51;101398.97;;;4.86;100.00
60345;BME280;46188;52.324;8.032;2024-03-07T11:50:23;101401.72;;;4.89;100.00
60345;BME280;46188;52.324;8.032;2024-03-07T11:52:51;101398.56;;;4.96;100.00
60345;BME280;46188;52.324;8.032;2024-03-07T11:55:17;101395.47;;;5.03;100.00
60345;BME280;46188;52.324;8.032;2024-03-07T11:57:44;101391.28;;;5.07;100.00
60345;BME280;46188;52.324;8.032;2024-03-07T12:00:11;101395.00;;;5.12;100.00
60345;BME280;46188;52.324;8.032;2024-03-07T12:02:38;101397.75;;;5.15;100.00
60345;BME280;46188;52.324;8.032;2024-03-07T12:05:07;101389.06;;;5.16;100.00
60345;BME280;46188;52.324;8.032;2024-03-07T12:07:33;101383.13;;;5.18;100.00
60345;BME280;46188;52.324;8.032;2024-03-07T12:09:59;101378.94;;;5.22;100.00
60345;BME280;46188;52.324;8.032;2024-03-07T12:12:25;101380.88;;;5.26;100.00
60345;BME280;46188;52.324;8.032;2024-03-07T12:14:53;101388.91;;;5.31;100.00
60345;BME280;46188;52.324;8.032;2024-03-07T12:17:19;101375.91;;;5.32;100.00
60345;BME280;46188;52.324;8.032;2024-03-07T12:19:45;101375.84;;;5.31;100.00
60345;BME280;46188;52.324;8.032;2024-03-07T12:22:12;101378.44;;;5.31;100.00
60345;BME280;46188;52.324;8.032;2024-03-07T12:24:41;101369.56;;;5.27;100.00
60345;BME280;46188;52.324;8.032;2024-03-07T12:27:15;101379.88;;;5.24;100.00
60345;BME280;46188;52.324;8.032;2024-03-07T12:29:42;101371.97;;;5.23;100.00
60345;BME280;46188;52.324;8.032;2024-03-07T12:32:09;101366.66;;;5.21;100.00
60345;BME280;46188;52.324;8.032;2024-03-07T12:34:47;101366.53;;;5.18;100.00
60345;BME280;46188;52.324;8.032;2024-03-07T12:37:13;101359.44;;;5.15;100.00
60345;BME280;46188;52.324;8.032;2024-03-07T12:39:45;101354.06;;;5.12;100.00
60345;BME280;46188;52.324;8.032;2024-03-07T12:42:17;101348.63;;;5.08;100.00
60345;BME280;46188;52.324;8.032;2024-03-07T12:44:44;101354.69;;;5.07;100.00
60345;BME280;46188;52.324;8.032;2024-03-07T12:47:13;101349.38;;;5.05;100.00
60345;BME280;46188;52.324;8.032;2024-03-07T12:49:42;101351.03;;;5.03;100.00
60345;BME280;46188;52.324;8.032;2024-03-07T12:52:08;101339.75;;;5.04;100.00
60345;BME280;46188;52.324;8.032;2024-03-07T12:54:36;101336.31;;;5.05;100.00